createdAt,value
2018-12-12T00:01:08.969Z,80.40
2018-12-12T00:03:38.358Z,79.00
2018-12-12T00:06:06.551Z,80.00
2018-12-12T00:08:34.764Z,79.90
2018-12-12T00:11:02.989Z,79.70
2018-12-12T00:13:32.235Z,79.40
2018-12-12T00:16:01.661Z,79.40
2018-12-12T00:18:30.448Z,80.10
2018-12-12T00:20:58.943Z,79.50
2018-12-12T00:23:27.234Z,79.20
2018-12-12T00:25:56.730Z,78.70
2018-12-12T00:28:24.950Z,78.50
2018-12-12T00:30:54.208Z,78.20
2018-12-12T00:33:22.400Z,77.60
2018-12-12T00:35:51.639Z,77.80
2018-12-12T00:38:19.877Z,77.90
2018-12-12T00:40:48.057Z,77.80
2018-12-12T00:43:17.557Z,78.20
2018-12-12T00:46:12.192Z,78.00
2018-12-12T00:48:43.444Z,78.70
2018-12-12T00:51:12.562Z,78.00
2018-12-12T00:53:40.754Z,78.50
2018-12-12T00:56:08.992Z,79.30
2018-12-12T00:58:37.199Z,78.90
2018-12-12T01:01:05.370Z,79.10
2018-12-12T01:03:33.932Z,79.70
2018-12-12T01:06:02.124Z,80.30
2018-12-12T01:08:32.351Z,79.90
2018-12-12T01:11:18.449Z,79.40
2018-12-12T01:13:47.560Z,79.60
2018-12-12T01:16:16.004Z,78.80
2018-12-12T01:18:44.199Z,78.50
2018-12-12T01:21:12.366Z,77.90
2018-12-12T01:23:40.587Z,77.60
2018-12-12T01:26:08.727Z,79.50
2018-12-12T01:28:36.882Z,79.20
2018-12-12T01:31:11.428Z,78.70
2018-12-12T01:33:40.074Z,78.50
2018-12-12T01:36:10.326Z,78.50
2018-12-12T01:38:38.480Z,78.80
2018-12-12T01:41:07.462Z,79.10
2018-12-12T01:43:35.687Z,79.10
2018-12-12T01:46:03.894Z,78.70
2018-12-12T01:48:32.108Z,78.50
2018-12-12T01:51:07.176Z,79.00
2018-12-12T01:53:35.318Z,78.60
2018-12-12T01:56:04.746Z,78.90
2018-12-12T01:58:37.999Z,79.40
2018-12-12T02:01:07.206Z,79.40
2018-12-12T02:03:39.901Z,79.00
2018-12-12T02:06:08.063Z,78.40
2018-12-12T02:08:38.290Z,78.20
2018-12-12T02:11:06.442Z,78.60
2018-12-12T02:13:35.634Z,78.80
2018-12-12T02:16:04.522Z,79.00
2018-12-12T02:18:33.744Z,79.50
2018-12-12T02:21:01.900Z,79.00
2018-12-12T02:23:30.087Z,79.80
2018-12-12T02:25:58.299Z,79.30
2018-12-12T02:28:26.444Z,79.20
2018-12-12T02:30:54.635Z,79.20
2018-12-12T02:33:22.765Z,79.70
2018-12-12T02:35:52.620Z,78.60
2018-12-12T02:38:21.782Z,78.70
2018-12-12T02:40:51.076Z,78.50
2018-12-12T02:43:40.858Z,78.20
2018-12-12T02:46:15.943Z,79.10
2018-12-12T02:48:49.851Z,79.50
2018-12-12T02:51:18.907Z,79.70
2018-12-12T02:53:47.078Z,79.70
2018-12-12T02:56:15.254Z,79.50
2018-12-12T02:58:43.453Z,79.00
2018-12-12T03:01:11.663Z,79.10
2018-12-12T03:03:40.899Z,79.10
2018-12-12T03:06:09.067Z,79.60
2018-12-12T03:08:39.562Z,79.00
2018-12-12T03:11:07.842Z,79.70
2018-12-12T03:13:36.061Z,79.70
2018-12-12T03:16:05.493Z,79.40
2018-12-12T03:18:34.322Z,78.50
2018-12-12T03:21:03.546Z,78.20
2018-12-12T03:23:31.758Z,77.50
2018-12-12T03:25:59.911Z,77.40
2018-12-12T03:28:28.054Z,78.30
2018-12-12T03:30:57.561Z,79.70
2018-12-12T03:33:25.733Z,79.30
2018-12-12T03:35:54.201Z,79.80
2018-12-12T03:38:23.410Z,79.40
2018-12-12T03:40:51.656Z,79.30
2018-12-12T03:43:22.237Z,80.10
2018-12-12T03:45:51.420Z,79.40
2018-12-12T03:48:21.154Z,79.20
2018-12-12T03:50:50.841Z,79.60
2018-12-12T03:53:19.000Z,79.30
2018-12-12T03:55:47.183Z,79.20
2018-12-12T03:58:22.329Z,80.10
2018-12-12T04:00:50.483Z,80.40
2018-12-12T04:03:18.961Z,80.20
2018-12-12T04:05:47.153Z,80.40
2018-12-12T04:08:15.506Z,80.60
2018-12-12T04:10:44.721Z,80.70
2018-12-12T04:13:12.922Z,80.00
2018-12-12T04:15:42.171Z,79.80
2018-12-12T04:18:11.417Z,80.30
2018-12-12T04:20:40.605Z,80.20
2018-12-12T04:23:09.278Z,79.40
2018-12-12T04:25:37.728Z,79.40
2018-12-12T04:28:05.936Z,80.30
2018-12-12T04:30:34.163Z,80.30
2018-12-12T04:33:02.281Z,79.00
2018-12-12T04:35:30.476Z,79.60
2018-12-12T04:38:05.585Z,80.50
2018-12-12T04:40:38.769Z,81.00
2018-12-12T04:43:10.040Z,80.90
2018-12-12T04:45:41.232Z,80.10
2018-12-12T04:48:09.447Z,80.30
2018-12-12T04:50:37.601Z,80.10
2018-12-12T04:53:06.827Z,79.70
2018-12-12T04:55:35.002Z,79.20
2018-12-12T04:58:04.179Z,79.40
2018-12-12T05:00:33.394Z,79.50
2018-12-12T05:03:08.605Z,79.70
2018-12-12T05:05:36.790Z,79.40
2018-12-12T05:08:04.999Z,78.60
2018-12-12T05:10:34.161Z,77.80
2018-12-12T05:13:03.504Z,78.30
2018-12-12T05:15:30.654Z,78.70
2018-12-12T05:17:58.926Z,78.70
2018-12-12T05:20:27.458Z,78.10
2018-12-12T05:22:55.645Z,77.60
2018-12-12T05:25:24.841Z,77.40
2018-12-12T05:27:53.325Z,77.10
2018-12-12T05:30:25.732Z,77.60
2018-12-12T05:32:54.179Z,77.20
2018-12-12T05:35:22.796Z,78.00
2018-12-12T05:37:52.379Z,77.90
2018-12-12T05:40:20.206Z,78.70
2018-12-12T05:42:51.468Z,78.80
2018-12-12T05:45:20.326Z,78.80
2018-12-12T05:47:49.614Z,79.20
2018-12-12T05:50:17.866Z,79.40
2018-12-12T05:52:46.031Z,79.90
2018-12-12T05:55:14.433Z,79.40
2018-12-12T05:57:43.169Z,79.20
2018-12-12T06:00:11.379Z,79.00
2018-12-12T06:02:40.588Z,78.50
2018-12-12T06:05:08.868Z,78.30
2018-12-12T06:07:37.121Z,78.20
2018-12-12T06:10:07.639Z,78.50
2018-12-12T06:12:36.150Z,78.80
2018-12-12T06:15:05.999Z,80.10
2018-12-12T06:17:34.220Z,79.40
2018-12-12T06:20:05.198Z,79.20
2018-12-12T06:22:37.657Z,79.00
2018-12-12T06:25:01.646Z,78.30
2018-12-12T06:27:29.857Z,78.40
2018-12-12T06:29:58.335Z,78.80
2018-12-12T06:32:27.554Z,78.20
2018-12-12T06:34:55.780Z,77.60
2018-12-12T06:37:27.068Z,77.60
2018-12-12T06:39:56.243Z,76.80
2018-12-12T06:42:25.140Z,77.40
2018-12-12T06:44:54.681Z,77.60
2018-12-12T06:47:22.888Z,77.70
2018-12-12T06:49:52.127Z,77.80
2018-12-12T06:52:20.313Z,77.60
2018-12-12T06:54:48.524Z,78.20
2018-12-12T06:57:17.036Z,78.50
2018-12-12T06:59:45.255Z,77.50
2018-12-12T07:02:13.415Z,78.60
2018-12-12T07:05:11.112Z,78.20
2018-12-12T07:07:44.377Z,78.10
2018-12-12T07:10:12.601Z,78.30
2018-12-12T07:12:42.755Z,78.80
2018-12-12T07:15:14.691Z,78.00
2018-12-12T07:17:52.847Z,78.00
2018-12-12T07:20:21.037Z,77.90
2018-12-12T07:22:56.380Z,78.00
2018-12-12T07:25:36.632Z,77.80
2018-12-12T07:28:14.226Z,78.20
2018-12-12T07:30:51.874Z,77.70
2018-12-12T07:33:23.607Z,77.80
2018-12-12T07:36:03.045Z,77.70
2018-12-12T07:38:31.499Z,77.70
2018-12-12T07:40:59.849Z,78.70
2018-12-12T07:43:38.095Z,78.40
2018-12-12T07:46:06.386Z,78.70
2018-12-12T07:48:45.904Z,78.70
2018-12-12T07:51:17.902Z,79.90
2018-12-12T07:54:00.369Z,81.10
2018-12-12T07:56:36.531Z,80.90
2018-12-12T07:59:17.925Z,81.00
2018-12-12T08:01:56.247Z,80.80
2018-12-12T08:04:26.405Z,80.90
2018-12-12T08:06:56.655Z,81.00
2018-12-12T08:09:29.953Z,80.60
2018-12-12T08:12:03.670Z,80.80
2018-12-12T08:14:38.049Z,81.20
2018-12-12T08:17:06.297Z,81.00
2018-12-12T08:19:46.553Z,81.90
2018-12-12T08:22:16.982Z,82.40
2018-12-12T08:24:46.252Z,82.60
2018-12-12T08:27:18.123Z,82.30
2018-12-12T08:29:47.319Z,81.60
2018-12-12T08:32:23.868Z,81.70
2018-12-12T08:34:55.125Z,81.90
2018-12-12T08:37:24.725Z,81.60
2018-12-12T08:39:56.529Z,80.80
2018-12-12T08:42:33.529Z,81.20
2018-12-12T08:45:01.732Z,81.30
2018-12-12T08:47:40.549Z,81.10
2018-12-12T08:50:23.977Z,82.70
2018-12-12T08:52:52.221Z,83.40
2018-12-12T08:55:22.612Z,82.60
2018-12-12T08:57:54.370Z,82.60
2018-12-12T09:00:22.715Z,82.80
2018-12-12T09:03:07.167Z,82.90
2018-12-12T09:05:35.457Z,83.20
2018-12-12T09:08:11.862Z,83.20
2018-12-12T09:10:43.342Z,82.70
2018-12-12T09:13:13.593Z,83.50
2018-12-12T09:15:53.671Z,85.50
2018-12-12T09:18:35.295Z,84.70
2018-12-12T09:21:23.527Z,84.70
2018-12-12T09:23:53.879Z,83.60
2018-12-12T09:26:22.116Z,83.20
2018-12-12T09:28:59.657Z,82.40
2018-12-12T09:31:29.958Z,81.30
2018-12-12T09:34:09.025Z,80.90
2018-12-12T09:36:40.411Z,82.70
2018-12-12T09:39:33.152Z,83.80
2018-12-12T09:42:03.339Z,83.10
2018-12-12T09:44:50.308Z,82.90
2018-12-12T09:47:33.161Z,82.50
2018-12-12T09:50:11.697Z,82.40
2018-12-12T09:52:47.766Z,82.20
2018-12-12T09:55:22.597Z,82.20
2018-12-12T09:57:54.273Z,82.40
2018-12-12T10:00:23.594Z,81.30
2018-12-12T10:03:06.753Z,81.30
2018-12-12T10:05:35.341Z,80.60
2018-12-12T10:08:04.894Z,80.50
2018-12-12T10:10:35.230Z,81.20
2018-12-12T10:13:03.707Z,80.50
2018-12-12T10:15:46.440Z,79.50
2018-12-12T10:18:16.756Z,78.30
2018-12-12T10:20:55.450Z,77.90
2018-12-12T10:23:25.750Z,78.70
2018-12-12T10:25:59.591Z,78.40
2018-12-12T10:28:40.960Z,77.70
2018-12-12T10:31:09.281Z,78.40
2018-12-12T10:33:37.998Z,77.70
2018-12-12T10:36:05.784Z,75.50
2018-12-12T10:38:45.368Z,76.10
2018-12-12T10:41:15.647Z,75.80
2018-12-12T10:43:45.260Z,76.10
2018-12-12T10:46:19.877Z,76.20
2018-12-12T10:48:53.466Z,76.90
2018-12-12T10:51:27.575Z,76.80
2018-12-12T10:53:57.815Z,76.20
2018-12-12T10:56:42.062Z,74.40
2018-12-12T10:59:10.392Z,73.50
2018-12-12T11:01:49.298Z,73.60
2018-12-12T11:04:19.805Z,73.80
2018-12-12T11:07:14.288Z,73.80
2018-12-12T11:09:43.544Z,73.80
2018-12-12T11:12:12.688Z,74.50
2018-12-12T11:14:53.283Z,74.40
2018-12-12T11:17:34.693Z,72.00
2018-12-12T11:20:02.970Z,72.00
2018-12-12T11:22:54.424Z,72.30
2018-12-12T11:25:28.581Z,72.40
2018-12-12T11:28:40.966Z,72.40
2018-12-12T11:31:09.220Z,71.30
2018-12-12T11:33:54.586Z,71.20
2018-12-12T11:36:24.598Z,71.00
2018-12-12T11:38:54.880Z,71.30
2018-12-12T11:41:24.916Z,70.20
2018-12-12T11:44:13.203Z,70.50
2018-12-12T11:46:41.365Z,70.40
2018-12-12T11:49:10.098Z,70.60
2018-12-12T11:51:41.418Z,69.50
2018-12-12T11:54:11.831Z,70.10
2018-12-12T11:56:41.169Z,69.00
2018-12-12T11:59:09.353Z,67.10
2018-12-12T12:01:38.650Z,68.10
2018-12-12T12:04:19.049Z,69.40
2018-12-12T12:06:47.406Z,69.20
2018-12-12T12:09:45.104Z,69.60
2018-12-12T12:12:47.212Z,69.00
2018-12-12T12:15:15.437Z,68.80
2018-12-12T12:17:45.667Z,69.20
2018-12-12T12:20:20.566Z,69.80
2018-12-12T12:22:53.902Z,69.00
2018-12-12T12:25:26.585Z,68.60
2018-12-12T12:27:55.186Z,66.50
2018-12-12T12:30:53.898Z,64.80
2018-12-12T12:33:22.186Z,66.00
2018-12-12T12:39:15.816Z,66.40
2018-12-12T12:41:58.663Z,68.50
2018-12-12T12:44:39.587Z,69.00
2018-12-12T12:47:07.899Z,68.50
2018-12-12T12:49:36.093Z,68.10
2018-12-12T12:52:04.315Z,67.80
2018-12-12T12:54:36.108Z,67.60
2018-12-12T12:57:06.352Z,66.50
2018-12-12T12:59:45.732Z,65.90
2018-12-12T13:02:20.417Z,66.50
2018-12-12T13:04:48.613Z,66.70
2018-12-12T13:07:18.818Z,66.70
2018-12-12T13:10:01.186Z,66.50
2018-12-12T13:12:40.697Z,66.50
2018-12-12T13:15:08.975Z,65.90
2018-12-12T13:17:37.206Z,65.70
2018-12-12T13:20:19.124Z,67.50
2018-12-12T13:22:55.271Z,67.30
2018-12-12T13:25:29.296Z,67.30
2018-12-12T13:27:59.170Z,67.20
2018-12-12T13:30:37.150Z,68.10
2018-12-12T13:33:14.724Z,67.90
2018-12-12T13:35:48.905Z,67.80
2018-12-12T13:38:20.655Z,67.90
2018-12-12T13:40:52.833Z,67.60
2018-12-12T13:43:24.433Z,67.10
2018-12-12T13:46:24.296Z,66.50
2018-12-12T13:48:54.825Z,66.00
2018-12-12T13:51:23.239Z,65.80
2018-12-12T13:53:58.970Z,66.60
2018-12-12T13:56:51.548Z,66.00
2018-12-12T13:59:23.768Z,65.80
2018-12-12T14:02:00.055Z,65.90
2018-12-12T14:04:39.000Z,65.00
2018-12-12T14:07:16.601Z,65.30
2018-12-12T14:09:53.205Z,63.40
2018-12-12T14:12:22.436Z,63.20
2018-12-12T14:15:16.351Z,65.10
2018-12-12T14:17:47.667Z,65.20
2018-12-12T14:20:21.333Z,65.20
2018-12-12T14:23:08.212Z,66.30
2018-12-12T14:25:40.799Z,66.60
2018-12-12T14:28:16.673Z,67.20
2018-12-12T14:30:53.622Z,68.00
2018-12-12T14:33:26.875Z,68.00
2018-12-12T14:36:01.032Z,68.10
2018-12-12T14:38:27.126Z,68.20
2018-12-12T14:41:22.461Z,68.00
2018-12-12T14:43:50.744Z,67.40
2018-12-12T14:46:20.004Z,67.70
2018-12-12T14:48:52.243Z,67.20
2018-12-12T14:51:31.406Z,68.00
2018-12-12T14:53:59.611Z,67.20
2018-12-12T14:56:27.971Z,67.90
2018-12-12T14:59:38.829Z,68.00
2018-12-12T15:02:09.173Z,67.70
2018-12-12T15:05:20.965Z,67.60
2018-12-12T15:08:15.479Z,66.90
2018-12-12T15:11:09.065Z,67.10
2018-12-12T15:13:38.573Z,66.90
2018-12-12T15:16:22.286Z,67.00
2018-12-12T15:18:52.717Z,67.00
2018-12-12T15:21:39.522Z,67.20
2018-12-12T15:24:18.694Z,68.00
2018-12-12T15:26:56.553Z,67.90
2018-12-12T15:29:27.215Z,68.50
2018-12-12T15:31:56.465Z,70.60
2018-12-12T15:35:01.215Z,71.10
2018-12-12T15:37:32.037Z,72.40
2018-12-12T15:40:04.020Z,72.50
2018-12-12T15:42:32.647Z,72.60
2018-12-12T15:45:07.281Z,72.10
2018-12-12T15:47:46.351Z,71.50
2018-12-12T15:50:23.457Z,72.00
2018-12-12T15:52:58.384Z,72.50
2018-12-12T15:55:26.543Z,72.60
2018-12-12T15:57:54.921Z,72.50
2018-12-12T16:00:25.122Z,72.90
2018-12-12T16:02:54.456Z,73.60
2018-12-12T16:05:22.643Z,73.70
2018-12-12T16:07:51.894Z,73.80
2018-12-12T16:10:21.178Z,73.00
2018-12-12T16:12:49.496Z,72.10
2018-12-12T16:15:18.110Z,70.40
2018-12-12T16:17:47.091Z,69.50
2018-12-12T16:20:16.394Z,70.00
2018-12-12T16:22:44.599Z,70.00
2018-12-12T16:25:13.495Z,70.80
2018-12-12T16:27:46.209Z,69.80
2018-12-12T16:30:28.837Z,69.70
2018-12-12T16:33:00.223Z,70.40
2018-12-12T16:35:32.993Z,70.20
2018-12-12T16:38:05.483Z,70.80
2018-12-12T16:40:33.817Z,70.20
2018-12-12T16:43:15.065Z,70.00
2018-12-12T16:45:47.134Z,69.70
2018-12-12T16:48:24.427Z,69.50
2018-12-12T16:51:16.577Z,69.30
2018-12-12T16:53:55.203Z,69.30
2018-12-12T16:56:32.684Z,68.60
2018-12-12T16:59:10.093Z,68.60
2018-12-12T17:01:53.482Z,68.90
2018-12-12T17:04:30.209Z,69.70
2018-12-12T17:07:04.368Z,69.70
2018-12-12T17:09:44.846Z,69.70
2018-12-12T17:12:14.152Z,69.70
2018-12-12T17:15:19.407Z,69.20
2018-12-12T17:17:50.211Z,67.90
2018-12-12T17:20:24.264Z,68.30
2018-12-12T17:22:55.595Z,68.00
2018-12-12T17:25:27.916Z,67.20
2018-12-12T17:28:00.284Z,66.80
2018-12-12T17:30:28.734Z,67.20
2018-12-12T17:33:16.774Z,66.60
2018-12-12T17:35:56.280Z,67.30
2018-12-12T17:38:24.528Z,67.00
2018-12-12T17:40:54.742Z,66.30
2018-12-12T17:43:25.511Z,66.80
2018-12-12T17:45:57.228Z,66.90
2018-12-12T17:48:25.732Z,67.00
2018-12-12T17:51:00.119Z,66.90
2018-12-12T17:53:29.353Z,67.30
2018-12-12T17:56:00.199Z,67.30
2018-12-12T17:58:37.196Z,67.20
2018-12-12T18:01:16.581Z,67.20
2018-12-12T18:03:50.988Z,66.90
2018-12-12T18:06:37.504Z,66.30
2018-12-12T18:09:07.772Z,66.20
2018-12-12T18:11:44.870Z,66.00
2018-12-12T18:14:24.176Z,66.10
2018-12-12T18:17:04.256Z,65.80
2018-12-12T18:19:33.722Z,66.80
2018-12-12T18:22:10.054Z,66.10
2018-12-12T18:25:02.016Z,65.60
2018-12-12T18:27:38.145Z,65.50
2018-12-12T18:30:13.554Z,65.80
2018-12-12T18:32:41.773Z,66.20
2018-12-12T18:35:42.577Z,65.70
2018-12-12T18:38:11.848Z,65.90
2018-12-12T18:40:54.156Z,65.90
2018-12-12T18:43:31.164Z,65.80
2018-12-12T18:45:59.427Z,66.10
2018-12-12T18:48:39.048Z,66.10
2018-12-12T18:51:07.291Z,66.20
2018-12-12T18:53:38.697Z,66.70
2018-12-12T18:56:06.943Z,67.10
2018-12-12T18:58:39.459Z,67.00
2018-12-12T19:01:16.676Z,67.00
2018-12-12T19:03:58.287Z,66.80
2018-12-12T19:06:32.529Z,67.00
2018-12-12T19:09:01.892Z,67.50
2018-12-12T19:11:44.523Z,67.60
2018-12-12T19:14:20.116Z,67.70
2018-12-12T19:16:55.490Z,67.70
2018-12-12T19:19:23.935Z,67.50
2018-12-12T19:21:52.279Z,67.40
2018-12-12T19:24:30.978Z,67.60
2018-12-12T19:27:02.407Z,67.10
2018-12-12T19:29:31.463Z,67.10
2018-12-12T19:32:00.667Z,66.80
2018-12-12T19:34:28.827Z,67.70
2018-12-12T19:37:02.951Z,67.00
2018-12-12T19:39:31.166Z,67.00
2018-12-12T19:42:01.642Z,68.60
2018-12-12T19:44:30.881Z,68.00
2018-12-12T19:47:05.174Z,67.80
2018-12-12T19:49:34.576Z,68.40
2018-12-12T19:52:02.820Z,68.10
2018-12-12T19:54:31.461Z,69.30
2018-12-12T19:57:00.625Z,70.00
2018-12-12T19:59:28.876Z,70.00
2018-12-12T20:01:58.091Z,70.50
2018-12-12T20:04:26.406Z,70.00
2018-12-12T20:07:02.852Z,70.40
2018-12-12T20:09:32.129Z,68.70
2018-12-12T20:12:00.315Z,69.10
2018-12-12T20:14:30.649Z,69.30
2018-12-12T20:17:04.923Z,69.60
2018-12-12T20:19:37.679Z,69.80
2018-12-12T20:22:13.706Z,69.90
2018-12-12T20:24:43.972Z,69.30
2018-12-12T20:27:25.405Z,69.90
2018-12-12T20:29:55.633Z,70.00
2018-12-12T20:32:25.920Z,69.40
2018-12-12T20:34:54.519Z,69.40
2018-12-12T20:37:23.760Z,69.10
2018-12-12T20:39:59.857Z,69.70
2018-12-12T20:42:33.836Z,68.60
2018-12-12T20:45:02.103Z,68.50
2018-12-12T20:47:30.849Z,69.00
2018-12-12T20:50:00.078Z,68.70
2018-12-12T20:52:28.243Z,68.90
2018-12-12T20:55:00.554Z,69.70
2018-12-12T20:57:37.603Z,70.40
2018-12-12T21:00:08.091Z,70.90
2018-12-12T21:02:40.482Z,70.90
2018-12-12T21:05:08.660Z,70.80
2018-12-12T21:07:37.500Z,71.60
2018-12-12T21:10:07.702Z,72.70
2018-12-12T21:12:36.923Z,73.00
2018-12-12T21:15:08.638Z,73.30
2018-12-12T21:17:39.921Z,73.30
2018-12-12T21:20:19.563Z,73.30
2018-12-12T21:22:51.778Z,73.40
2018-12-12T21:25:19.990Z,73.40
2018-12-12T21:27:54.392Z,72.50
2018-12-12T21:30:28.586Z,72.60
2018-12-12T21:32:58.891Z,72.20
2018-12-12T21:35:34.125Z,72.00
2018-12-12T21:38:02.239Z,73.20
2018-12-12T21:40:31.446Z,74.00
2018-12-12T21:42:59.721Z,74.30
2018-12-12T21:45:29.950Z,74.00
2018-12-12T21:47:59.141Z,73.50
2018-12-12T21:50:34.305Z,73.10
2018-12-12T21:53:10.668Z,73.10
2018-12-12T21:55:40.867Z,73.10
2018-12-12T21:58:09.176Z,73.20
2018-12-12T22:00:38.886Z,73.90
2018-12-12T22:03:07.233Z,73.00
2018-12-12T22:05:35.377Z,71.80
2018-12-12T22:08:04.559Z,70.00
2018-12-12T22:10:32.778Z,70.30
2018-12-12T22:13:01.085Z,71.40
2018-12-12T22:15:31.640Z,71.40
2018-12-12T22:17:59.891Z,72.40
2018-12-12T22:20:29.394Z,73.00
2018-12-12T22:22:58.054Z,73.50
2018-12-12T22:25:26.855Z,73.90
2018-12-12T22:27:55.041Z,74.10
2018-12-12T22:30:23.325Z,73.90
2018-12-12T22:32:51.577Z,73.90
2018-12-12T22:35:20.926Z,73.70
2018-12-12T22:37:49.153Z,74.30
2018-12-12T22:40:17.623Z,73.50
2018-12-12T22:42:46.509Z,73.30
2018-12-12T22:45:15.685Z,73.70
2018-12-12T22:47:49.684Z,74.00
2018-12-12T22:50:18.952Z,73.90
2018-12-12T22:52:47.224Z,74.10
2018-12-12T22:55:21.365Z,74.00
2018-12-12T22:57:54.118Z,73.50
2018-12-12T23:00:35.709Z,71.90
2018-12-12T23:03:04.882Z,72.00
2018-12-12T23:05:33.510Z,72.80
2018-12-12T23:08:09.079Z,73.80
2018-12-12T23:10:39.642Z,74.10
2018-12-12T23:13:09.843Z,74.20
2018-12-12T23:15:40.109Z,73.50
2018-12-12T23:18:18.485Z,73.70
2018-12-12T23:20:56.812Z,73.30
2018-12-12T23:23:25.072Z,72.90
2018-12-12T23:26:02.132Z,73.20
2018-12-12T23:28:32.371Z,73.30
2018-12-12T23:31:08.989Z,73.10
2018-12-12T23:33:52.584Z,72.00
2018-12-12T23:36:26.925Z,70.90
2018-12-12T23:38:56.560Z,71.00
2018-12-12T23:41:24.727Z,71.70
2018-12-12T23:43:55.299Z,72.80
2018-12-12T23:46:23.481Z,73.60
2018-12-12T23:48:51.755Z,73.80
2018-12-12T23:51:20.971Z,73.60
2018-12-12T23:53:49.878Z,73.90
2018-12-12T23:56:20.185Z,73.90
2018-12-12T23:58:48.441Z,74.80
